sensor_id;sensor_type;location;lat;lon;timestamp;temperature;humidity
23259;DHT22;11798;51.528;7.240;2023-07-20T00:01:43;16.50;99.90
23259;DHT22;11798;51.528;7.240;2023-07-20T00:04:10;16.50;99.90
23259;DHT22;11798;51.528;7.240;2023-07-20T00:06:35;16.50;99.90
23259;DHT22;11798;51.528;7.240;2023-07-20T00:09:01;16.50;99.90
23259;DHT22;11798;51.528;7.240;2023-07-20T00:11:27;16.40;99.90
23259;DHT22;11798;51.528;7.240;2023-07-20T00:13:52;16.40;99.90
23259;DHT22;11798;51.528;7.240;2023-07-20T00:16:18;16.40;99.90
23259;DHT22;11798;51.528;7.240;2023-07-20T00:18:43;16.50;99.90
23259;DHT22;11798;51.528;7.240;2023-07-20T00:21:09;16.50;99.90
23259;DHT22;11798;51.528;7.240;2023-07-20T00:23:34;16.50;99.90
23259;DHT22;11798;51.528;7.240;2023-07-20T00:26:00;16.50;99.90
23259;DHT22;11798;51.528;7.240;2023-07-20T00:28:25;16.40;99.90
23259;DHT22;11798;51.528;7.240;2023-07-20T00:30:51;16.50;99.90
23259;DHT22;11798;51.528;7.240;2023-07-20T00:33:17;16.50;99.90
23259;DHT22;11798;51.528;7.240;2023-07-20T00:35:43;16.50;99.90
23259;DHT22;11798;51.528;7.240;2023-07-20T00:38:08;16.50;99.90
23259;DHT22;11798;51.528;7.240;2023-07-20T00:40:37;16.50;99.90
23259;DHT22;11798;51.528;7.240;2023-07-20T00:43:03;16.50;99.90
23259;DHT22;11798;51.528;7.240;2023-07-20T00:45:29;16.60;99.90
23259;DHT22;11798;51.528;7.240;2023-07-20T00:47:54;16.60;99.90
23259;DHT22;11798;51.528;7.240;2023-07-20T00:50:20;16.60;99.90
23259;DHT22;11798;51.528;7.240;2023-07-20T00:52:46;16.60;99.90
23259;DHT22;11798;51.528;7.240;2023-07-20T00:55:11;16.60;99.90
23259;DHT22;11798;51.528;7.240;2023-07-20T00:57:37;16.50;99.90
23259;DHT22;11798;51.528;7.240;2023-07-20T01:00:03;16.60;99.90
23259;DHT22;11798;51.528;7.240;2023-07-20T01:02:28;16.60;99.90
23259;DHT22;11798;51.528;7.240;2023-07-20T01:04:54;16.60;99.90
23259;DHT22;11798;51.528;7.240;2023-07-20T01:07:26;16.60;99.90
23259;DHT22;11798;51.528;7.240;2023-07-20T01:10:06;16.60;99.90
23259;DHT22;11798;51.528;7.240;2023-07-20T01:12:47;16.60;99.90
23259;DHT22;11798;51.528;7.240;2023-07-20T01:15:13;16.60;99.90
23259;DHT22;11798;51.528;7.240;2023-07-20T01:17:39;16.60;99.90
23259;DHT22;11798;51.528;7.240;2023-07-20T01:20:05;16.60;99.90
23259;DHT22;11798;51.528;7.240;2023-07-20T01:32:39;16.50;99.90
23259;DHT22;11798;51.528;7.240;2023-07-20T01:35:06;16.50;99.90
23259;DHT22;11798;51.528;7.240;2023-07-20T01:37:32;16.50;99.90
23259;DHT22;11798;51.528;7.240;2023-07-20T01:39:58;16.50;99.90
23259;DHT22;11798;51.528;7.240;2023-07-20T01:42:24;16.40;99.90
23259;DHT22;11798;51.528;7.240;2023-07-20T01:44:51;16.40;99.90
23259;DHT22;11798;51.528;7.240;2023-07-20T01:47:17;16.40;99.90
23259;DHT22;11798;51.528;7.240;2023-07-20T01:49:43;16.30;99.90
23259;DHT22;11798;51.528;7.240;2023-07-20T01:52:08;16.30;99.90
23259;DHT22;11798;51.528;7.240;2023-07-20T01:54:34;16.40;99.90
23259;DHT22;11798;51.528;7.240;2023-07-20T01:56:59;16.30;99.90
23259;DHT22;11798;51.528;7.240;2023-07-20T01:59:25;16.30;99.90
23259;DHT22;11798;51.528;7.240;2023-07-20T02:01:50;16.20;99.90
23259;DHT22;11798;51.528;7.240;2023-07-20T02:04:16;16.20;99.90
23259;DHT22;11798;51.528;7.240;2023-07-20T02:06:41;16.20;99.90
23259;DHT22;11798;51.528;7.240;2023-07-20T02:09:07;16.20;99.90
23259;DHT22;11798;51.528;7.240;2023-07-20T02:11:33;16.20;99.90
23259;DHT22;11798;51.528;7.240;2023-07-20T02:13:58;16.20;99.90
23259;DHT22;11798;51.528;7.240;2023-07-20T02:16:24;16.20;99.90
23259;DHT22;11798;51.528;7.240;2023-07-20T02:18:49;16.20;99.90
23259;DHT22;11798;51.528;7.240;2023-07-20T02:21:15;16.20;99.90
23259;DHT22;11798;51.528;7.240;2023-07-20T02:23:41;16.10;99.90
23259;DHT22;11798;51.528;7.240;2023-07-20T02:26:06;16.10;99.90
23259;DHT22;11798;51.528;7.240;2023-07-20T02:28:32;16.20;99.90
23259;DHT22;11798;51.528;7.240;2023-07-20T02:30:57;16.20;99.90
23259;DHT22;11798;51.528;7.240;2023-07-20T02:33:23;16.20;99.90
23259;DHT22;11798;51.528;7.240;2023-07-20T02:35:48;16.20;99.90
23259;DHT22;11798;51.528;7.240;2023-07-20T02:38:14;16.20;99.90
23259;DHT22;11798;51.528;7.240;2023-07-20T02:40:39;16.10;99.90
23259;DHT22;11798;51.528;7.240;2023-07-20T02:43:05;16.10;99.90
23259;DHT22;11798;51.528;7.240;2023-07-20T02:45:30;16.10;99.90
23259;DHT22;11798;51.528;7.240;2023-07-20T02:47:56;16.10;99.90
23259;DHT22;11798;51.528;7.240;2023-07-20T02:50:22;16.20;99.90
23259;DHT22;11798;51.528;7.240;2023-07-20T02:52:47;16.10;99.90
23259;DHT22;11798;51.528;7.240;2023-07-20T02:55:13;16.10;99.90
23259;DHT22;11798;51.528;7.240;2023-07-20T02:57:38;16.10;99.90
23259;DHT22;11798;51.528;7.240;2023-07-20T03:00:04;16.00;99.90
23259;DHT22;11798;51.528;7.240;2023-07-20T03:02:31;16.10;99.90
23259;DHT22;11798;51.528;7.240;2023-07-20T03:04:57;16.00;99.90
23259;DHT22;11798;51.528;7.240;2023-07-20T03:07:27;16.00;99.90
23259;DHT22;11798;51.528;7.240;2023-07-20T03:09:53;15.90;99.90
23259;DHT22;11798;51.528;7.240;2023-07-20T03:12:18;16.00;99.90
23259;DHT22;11798;51.528;7.240;2023-07-20T03:14:44;16.00;99.90
23259;DHT22;11798;51.528;7.240;2023-07-20T03:17:09;15.90;99.90
23259;DHT22;11798;51.528;7.240;2023-07-20T03:19:35;15.80;99.90
23259;DHT22;11798;51.528;7.240;2023-07-20T03:22:00;15.80;99.90
23259;DHT22;11798;51.528;7.240;2023-07-20T03:24:26;15.80;99.90
23259;DHT22;11798;51.528;7.240;2023-07-20T03:26:51;15.90;99.90
23259;DHT22;11798;51.528;7.240;2023-07-20T03:29:16;15.90;99.90
23259;DHT22;11798;51.528;7.240;2023-07-20T03:31:42;15.90;99.90
23259;DHT22;11798;51.528;7.240;2023-07-20T03:34:07;15.90;99.90
23259;DHT22;11798;51.528;7.240;2023-07-20T03:36:34;15.90;99.90
23259;DHT22;11798;51.528;7.240;2023-07-20T03:38:59;15.90;99.90
23259;DHT22;11798;51.528;7.240;2023-07-20T03:41:25;15.90;99.90
23259;DHT22;11798;51.528;7.240;2023-07-20T03:43:50;15.90;99.90
23259;DHT22;11798;51.528;7.240;2023-07-20T03:46:16;15.90;99.90
23259;DHT22;11798;51.528;7.240;2023-07-20T03:48:41;16.00;99.90
23259;DHT22;11798;51.528;7.240;2023-07-20T03:51:07;16.00;99.90
23259;DHT22;11798;51.528;7.240;2023-07-20T03:53:32;15.90;99.90
23259;DHT22;11798;51.528;7.240;2023-07-20T03:55:58;16.00;99.90
23259;DHT22;11798;51.528;7.240;2023-07-20T03:58:23;16.00;99.90
23259;DHT22;11798;51.528;7.240;2023-07-20T04:00:50;16.00;99.90
23259;DHT22;11798;51.528;7.240;2023-07-20T04:03:16;16.00;99.90
23259;DHT22;11798;51.528;7.240;2023-07-20T04:05:41;16.00;99.90
23259;DHT22;11798;51.528;7.240;2023-07-20T04:08:07;16.00;99.90
23259;DHT22;11798;51.528;7.240;2023-07-20T04:10:33;16.00;99.90
23259;DHT22;11798;51.528;7.240;2023-07-20T04:12:58;16.00;99.90
23259;DHT22;11798;51.528;7.240;2023-07-20T04:15:24;16.00;99.90
23259;DHT22;11798;51.528;7.240;2023-07-20T04:17:49;15.90;99.90
23259;DHT22;11798;51.528;7.240;2023-07-20T04:20:15;15.90;99.90
23259;DHT22;11798;51.528;7.240;2023-07-20T04:22:40;15.90;99.90
23259;DHT22;11798;51.528;7.240;2023-07-20T04:25:06;15.90;99.90
23259;DHT22;11798;51.528;7.240;2023-07-20T04:27:32;15.90;99.90
23259;DHT22;11798;51.528;7.240;2023-07-20T04:29:57;15.90;99.90
23259;DHT22;11798;51.528;7.240;2023-07-20T04:32:23;15.90;99.90
23259;DHT22;11798;51.528;7.240;2023-07-20T04:34:50;15.90;99.90
23259;DHT22;11798;51.528;7.240;2023-07-20T04:37:15;15.90;99.90
23259;DHT22;11798;51.528;7.240;2023-07-20T04:39:41;15.90;99.90
23259;DHT22;11798;51.528;7.240;2023-07-20T04:42:06;16.00;99.90
23259;DHT22;11798;51.528;7.240;2023-07-20T04:44:32;16.00;99.90
23259;DHT22;11798;51.528;7.240;2023-07-20T04:46:57;16.00;99.90
23259;DHT22;11798;51.528;7.240;2023-07-20T04:49:23;16.00;99.90
23259;DHT22;11798;51.528;7.240;2023-07-20T04:51:48;16.10;99.90
23259;DHT22;11798;51.528;7.240;2023-07-20T04:54:14;16.20;99.90
23259;DHT22;11798;51.528;7.240;2023-07-20T04:56:40;16.20;99.90
23259;DHT22;11798;51.528;7.240;2023-07-20T04:59:05;16.30;99.90
23259;DHT22;11798;51.528;7.240;2023-07-20T05:01:31;16.40;99.90
23259;DHT22;11798;51.528;7.240;2023-07-20T05:03:56;16.40;99.90
23259;DHT22;11798;51.528;7.240;2023-07-20T05:06:22;16.40;99.90
23259;DHT22;11798;51.528;7.240;2023-07-20T05:08:47;16.40;99.90
23259;DHT22;11798;51.528;7.240;2023-07-20T05:11:13;16.40;99.90
23259;DHT22;11798;51.528;7.240;2023-07-20T05:13:38;16.40;99.90
23259;DHT22;11798;51.528;7.240;2023-07-20T05:16:04;16.30;99.90
23259;DHT22;11798;51.528;7.240;2023-07-20T05:18:30;16.40;99.90
23259;DHT22;11798;51.528;7.240;2023-07-20T05:20:55;16.40;99.90
23259;DHT22;11798;51.528;7.240;2023-07-20T05:23:21;16.40;99.90
23259;DHT22;11798;51.528;7.240;2023-07-20T05:25:47;16.40;99.90
23259;DHT22;11798;51.528;7.240;2023-07-20T05:28:12;16.40;99.90
23259;DHT22;11798;51.528;7.240;2023-07-20T05:30:38;16.30;99.90
23259;DHT22;11798;51.528;7.240;2023-07-20T05:33:03;16.40;99.90
23259;DHT22;11798;51.528;7.240;2023-07-20T05:35:29;16.30;99.90
23259;DHT22;11798;51.528;7.240;2023-07-20T05:37:54;16.40;99.90
23259;DHT22;11798;51.528;7.240;2023-07-20T05:40:20;16.40;99.90
23259;DHT22;11798;51.528;7.240;2023-07-20T05:42:46;16.40;99.90
23259;DHT22;11798;51.528;7.240;2023-07-20T05:45:14;16.40;99.90
23259;DHT22;11798;51.528;7.240;2023-07-20T05:47:39;16.40;99.90
23259;DHT22;11798;51.528;7.240;2023-07-20T05:50:05;16.40;99.90
23259;DHT22;11798;51.528;7.240;2023-07-20T05:52:31;16.60;99.90
23259;DHT22;11798;51.528;7.240;2023-07-20T05:54:57;16.50;99.90
23259;DHT22;11798;51.528;7.240;2023-07-20T05:57:23;16.50;99.90
23259;DHT22;11798;51.528;7.240;2023-07-20T05:59:48;16.50;99.90
23259;DHT22;11798;51.528;7.240;2023-07-20T06:02:14;16.40;99.90
23259;DHT22;11798;51.528;7.240;2023-07-20T06:04:40;16.50;99.90
23259;DHT22;11798;51.528;7.240;2023-07-20T06:07:06;16.50;99.90
23259;DHT22;11798;51.528;7.240;2023-07-20T06:09:33;16.50;99.90
23259;DHT22;11798;51.528;7.240;2023-07-20T06:11:59;16.60;99.90
23259;DHT22;11798;51.528;7.240;2023-07-20T06:14:25;16.70;99.90
23259;DHT22;11798;51.528;7.240;2023-07-20T06:16:50;16.70;99.90
23259;DHT22;11798;51.528;7.240;2023-07-20T06:19:16;16.70;99.90
23259;DHT22;11798;51.528;7.240;2023-07-20T06:21:42;16.70;99.90
23259;DHT22;11798;51.528;7.240;2023-07-20T06:24:07;16.70;99.90
23259;DHT22;11798;51.528;7.240;2023-07-20T06:26:33;16.80;99.90
23259;DHT22;11798;51.528;7.240;2023-07-20T06:29:05;16.90;99.90
23259;DHT22;11798;51.528;7.240;2023-07-20T06:31:32;17.00;99.90
23259;DHT22;11798;51.528;7.240;2023-07-20T06:33:57;17.10;99.90
23259;DHT22;11798;51.528;7.240;2023-07-20T06:36:23;17.30;99.90
23259;DHT22;11798;51.528;7.240;2023-07-20T06:38:48;17.50;99.90
23259;DHT22;11798;51.528;7.240;2023-07-20T06:41:14;17.40;99.90
23259;DHT22;11798;51.528;7.240;2023-07-20T06:43:39;17.50;99.90
23259;DHT22;11798;51.528;7.240;2023-07-20T06:46:05;17.40;99.90
23259;DHT22;11798;51.528;7.240;2023-07-20T06:48:31;17.40;99.90
23259;DHT22;11798;51.528;7.240;2023-07-20T06:50:56;17.40;99.90
23259;DHT22;11798;51.528;7.240;2023-07-20T06:53:22;17.30;99.90
23259;DHT22;11798;51.528;7.240;2023-07-20T06:55:48;17.20;99.90
23259;DHT22;11798;51.528;7.240;2023-07-20T06:58:13;17.10;99.90
23259;DHT22;11798;51.528;7.240;2023-07-20T07:00:39;17.10;99.90
23259;DHT22;11798;51.528;7.240;2023-07-20T07:03:05;17.30;99.90
23259;DHT22;11798;51.528;7.240;2023-07-20T07:05:30;17.30;99.90
23259;DHT22;11798;51.528;7.240;2023-07-20T07:07:56;17.30;99.90
23259;DHT22;11798;51.528;7.240;2023-07-20T07:10:21;17.30;99.90
23259;DHT22;11798;51.528;7.240;2023-07-20T07:12:47;17.40;99.90
23259;DHT22;11798;51.528;7.240;2023-07-20T07:15:13;17.40;99.90
23259;DHT22;11798;51.528;7.240;2023-07-20T07:17:38;17.40;99.90
23259;DHT22;11798;51.528;7.240;2023-07-20T07:20:05;17.60;99.90
23259;DHT22;11798;51.528;7.240;2023-07-20T07:22:31;17.60;99.90
23259;DHT22;11798;51.528;7.240;2023-07-20T07:24:57;17.80;99.90
23259;DHT22;11798;51.528;7.240;2023-07-20T07:27:22;17.90;99.90
23259;DHT22;11798;51.528;7.240;2023-07-20T07:29:48;18.00;99.90
23259;DHT22;11798;51.528;7.240;2023-07-20T07:32:15;18.10;99.90
23259;DHT22;11798;51.528;7.240;2023-07-20T07:34:40;18.10;99.90
23259;DHT22;11798;51.528;7.240;2023-07-20T07:37:06;18.10;99.90
23259;DHT22;11798;51.528;7.240;2023-07-20T07:39:32;18.20;99.90
23259;DHT22;11798;51.528;7.240;2023-07-20T07:41:57;18.20;99.90
23259;DHT22;11798;51.528;7.240;2023-07-20T07:44:23;18.20;99.90
23259;DHT22;11798;51.528;7.240;2023-07-20T07:46:49;18.00;99.90
23259;DHT22;11798;51.528;7.240;2023-07-20T07:49:16;18.00;99.90
23259;DHT22;11798;51.528;7.240;2023-07-20T07:51:44;18.10;99.90
23259;DHT22;11798;51.528;7.240;2023-07-20T07:54:09;18.10;99.90
23259;DHT22;11798;51.528;7.240;2023-07-20T07:56:35;18.10;99.90
23259;DHT22;11798;51.528;7.240;2023-07-20T07:59:00;18.30;99.90
23259;DHT22;11798;51.528;7.240;2023-07-20T08:01:26;18.30;99.90
23259;DHT22;11798;51.528;7.240;2023-07-20T08:03:52;18.20;99.90
23259;DHT22;11798;51.528;7.240;2023-07-20T08:06:17;18.20;99.90
23259;DHT22;11798;51.528;7.240;2023-07-20T08:08:43;18.40;99.90
23259;DHT22;11798;51.528;7.240;2023-07-20T08:11:09;18.40;99.90
23259;DHT22;11798;51.528;7.240;2023-07-20T08:13:35;18.40;99.90
23259;DHT22;11798;51.528;7.240;2023-07-20T08:16:01;18.40;99.90
23259;DHT22;11798;51.528;7.240;2023-07-20T08:18:28;18.50;99.90
23259;DHT22;11798;51.528;7.240;2023-07-20T08:20:53;18.40;99.90
23259;DHT22;11798;51.528;7.240;2023-07-20T08:23:19;18.30;99.90
23259;DHT22;11798;51.528;7.240;2023-07-20T08:25:45;18.30;99.90
23259;DHT22;11798;51.528;7.240;2023-07-20T08:28:15;18.20;99.90
23259;DHT22;11798;51.528;7.240;2023-07-20T08:30:46;18.10;99.90
23259;DHT22;11798;51.528;7.240;2023-07-20T08:33:17;18.20;99.90
23259;DHT22;11798;51.528;7.240;2023-07-20T08:35:45;18.30;99.90
23259;DHT22;11798;51.528;7.240;2023-07-20T08:38:10;18.30;99.90
23259;DHT22;11798;51.528;7.240;2023-07-20T08:40:43;18.30;99.90
23259;DHT22;11798;51.528;7.240;2023-07-20T08:43:13;18.30;99.90
23259;DHT22;11798;51.528;7.240;2023-07-20T08:45:42;18.40;99.90
23259;DHT22;11798;51.528;7.240;2023-07-20T08:48:12;18.60;99.90
23259;DHT22;11798;51.528;7.240;2023-07-20T08:50:38;18.70;99.90
23259;DHT22;11798;51.528;7.240;2023-07-20T08:53:04;18.60;99.90
23259;DHT22;11798;51.528;7.240;2023-07-20T08:55:31;18.70;99.90
23259;DHT22;11798;51.528;7.240;2023-07-20T08:58:00;18.70;99.90
23259;DHT22;11798;51.528;7.240;2023-07-20T09:00:27;18.70;99.90
23259;DHT22;11798;51.528;7.240;2023-07-20T09:02:55;18.80;99.90
23259;DHT22;11798;51.528;7.240;2023-07-20T09:05:23;19.00;99.90
23259;DHT22;11798;51.528;7.240;2023-07-20T09:07:49;19.00;99.90
23259;DHT22;11798;51.528;7.240;2023-07-20T09:10:14;19.00;99.90
23259;DHT22;11798;51.528;7.240;2023-07-20T09:12:42;19.00;99.90
23259;DHT22;11798;51.528;7.240;2023-07-20T09:15:09;19.10;99.90
23259;DHT22;11798;51.528;7.240;2023-07-20T09:17:36;19.30;99.90
23259;DHT22;11798;51.528;7.240;2023-07-20T09:20:08;19.30;99.90
23259;DHT22;11798;51.528;7.240;2023-07-20T09:22:39;19.30;99.90
23259;DHT22;11798;51.528;7.240;2023-07-20T09:25:23;19.10;99.90
23259;DHT22;11798;51.528;7.240;2023-07-20T09:27:49;19.10;99.90
23259;DHT22;11798;51.528;7.240;2023-07-20T09:30:16;19.10;99.90
23259;DHT22;11798;51.528;7.240;2023-07-20T09:32:47;19.10;99.90
23259;DHT22;11798;51.528;7.240;2023-07-20T09:35:17;19.30;99.90
23259;DHT22;11798;51.528;7.240;2023-07-20T09:38:00;19.20;99.90
23259;DHT22;11798;51.528;7.240;2023-07-20T09:40:29;19.30;99.90
23259;DHT22;11798;51.528;7.240;2023-07-20T09:42:55;19.30;99.90
23259;DHT22;11798;51.528;7.240;2023-07-20T09:45:49;19.40;99.90
23259;DHT22;11798;51.528;7.240;2023-07-20T09:48:15;19.40;99.90
23259;DHT22;11798;51.528;7.240;2023-07-20T09:50:42;19.60;99.90
23259;DHT22;11798;51.528;7.240;2023-07-20T09:53:11;19.70;99.90
23259;DHT22;11798;51.528;7.240;2023-07-20T09:55:40;19.80;99.90
23259;DHT22;11798;51.528;7.240;2023-07-20T09:58:08;19.70;99.90
23259;DHT22;11798;51.528;7.240;2023-07-20T10:00:36;19.50;99.90
23259;DHT22;11798;51.528;7.240;2023-07-20T10:03:05;19.40;99.90
23259;DHT22;11798;51.528;7.240;2023-07-20T10:05:35;19.50;99.90
23259;DHT22;11798;51.528;7.240;2023-07-20T10:08:02;19.70;99.90
23259;DHT22;11798;51.528;7.240;2023-07-20T10:10:32;19.70;99.90
23259;DHT22;11798;51.528;7.240;2023-07-20T10:13:00;19.70;99.90
23259;DHT22;11798;51.528;7.240;2023-07-20T10:15:31;19.70;99.90
23259;DHT22;11798;51.528;7.240;2023-07-20T10:18:07;19.80;99.90
23259;DHT22;11798;51.528;7.240;2023-07-20T10:20:36;20.00;99.90
23259;DHT22;11798;51.528;7.240;2023-07-20T10:23:04;19.90;99.90
23259;DHT22;11798;51.528;7.240;2023-07-20T10:25:31;19.80;99.90
23259;DHT22;11798;51.528;7.240;2023-07-20T10:27:58;19.70;99.90
23259;DHT22;11798;51.528;7.240;2023-07-20T10:30:25;19.60;99.90
23259;DHT22;11798;51.528;7.240;2023-07-20T10:32:51;19.60;99.90
23259;DHT22;11798;51.528;7.240;2023-07-20T10:35:18;19.60;99.90
23259;DHT22;11798;51.528;7.240;2023-07-20T10:37:48;19.60;99.90
23259;DHT22;11798;51.528;7.240;2023-07-20T10:43:03;19.90;99.90
23259;DHT22;11798;51.528;7.240;2023-07-20T10:48:24;20.10;99.90
23259;DHT22;11798;51.528;7.240;2023-07-20T10:51:28;20.20;99.90
23259;DHT22;11798;51.528;7.240;2023-07-20T10:53:58;20.20;99.90
23259;DHT22;11798;51.528;7.240;2023-07-20T10:56:27;20.40;99.90
23259;DHT22;11798;51.528;7.240;2023-07-20T10:59:00;20.40;99.90
23259;DHT22;11798;51.528;7.240;2023-07-20T11:01:29;20.60;99.90
23259;DHT22;11798;51.528;7.240;2023-07-20T11:03:58;20.50;99.90
23259;DHT22;11798;51.528;7.240;2023-07-20T11:09:10;20.70;99.90
23259;DHT22;11798;51.528;7.240;2023-07-20T11:11:43;20.80;99.90
23259;DHT22;11798;51.528;7.240;2023-07-20T11:14:19;21.00;99.90
23259;DHT22;11798;51.528;7.240;2023-07-20T11:16:48;21.00;99.90
23259;DHT22;11798;51.528;7.240;2023-07-20T11:19:24;20.90;99.90
23259;DHT22;11798;51.528;7.240;2023-07-20T11:21:52;20.90;99.90
23259;DHT22;11798;51.528;7.240;2023-07-20T11:24:18;20.90;99.90
23259;DHT22;11798;51.528;7.240;2023-07-20T11:26:45;20.70;99.90
23259;DHT22;11798;51.528;7.240;2023-07-20T11:29:12;20.70;99.90
23259;DHT22;11798;51.528;7.240;2023-07-20T11:31:39;20.70;99.90
23259;DHT22;11798;51.528;7.240;2023-07-20T11:34:05;20.70;99.90
23259;DHT22;11798;51.528;7.240;2023-07-20T11:36:31;20.80;99.90
23259;DHT22;11798;51.528;7.240;2023-07-20T11:38:58;20.90;99.90
23259;DHT22;11798;51.528;7.240;2023-07-20T11:41:25;20.90;99.90
23259;DHT22;11798;51.528;7.240;2023-07-20T11:43:51;21.00;99.90
23259;DHT22;11798;51.528;7.240;2023-07-20T11:46:17;21.10;99.90
23259;DHT22;11798;51.528;7.240;2023-07-20T11:48:42;21.30;99.90
23259;DHT22;11798;51.528;7.240;2023-07-20T11:51:15;21.60;99.90
23259;DHT22;11798;51.528;7.240;2023-07-20T11:53:43;21.70;99.90
23259;DHT22;11798;51.528;7.240;2023-07-20T11:56:09;21.60;99.90
23259;DHT22;11798;51.528;7.240;2023-07-20T11:58:35;21.70;99.90
23259;DHT22;11798;51.528;7.240;2023-07-20T12:01:00;21.60;99.90
23259;DHT22;11798;51.528;7.240;2023-07-20T12:03:27;21.40;99.90
23259;DHT22;11798;51.528;7.240;2023-07-20T12:05:53;21.30;99.90
23259;DHT22;11798;51.528;7.240;2023-07-20T12:08:19;21.20;99.90
23259;DHT22;11798;51.528;7.240;2023-07-20T12:10:44;21.30;99.90
23259;DHT22;11798;51.528;7.240;2023-07-20T12:13:11;21.30;99.90
23259;DHT22;11798;51.528;7.240;2023-07-20T12:15:37;21.20;99.90
23259;DHT22;11798;51.528;7.240;2023-07-20T12:18:03;21.30;99.90
23259;DHT22;11798;51.528;7.240;2023-07-20T12:20:30;21.30;99.90
23259;DHT22;11798;51.528;7.240;2023-07-20T12:23:01;21.40;99.90
23259;DHT22;11798;51.528;7.240;2023-07-20T12:25:45;21.40;99.90
23259;DHT22;11798;51.528;7.240;2023-07-20T12:28:13;21.40;99.90
23259;DHT22;11798;51.528;7.240;2023-07-20T12:30:41;21.50;99.90
23259;DHT22;11798;51.528;7.240;2023-07-20T12:33:07;21.60;99.90
23259;DHT22;11798;51.528;7.240;2023-07-20T12:35:33;21.70;99.90
23259;DHT22;11798;51.528;7.240;2023-07-20T12:37:58;21.80;99.90
23259;DHT22;11798;51.528;7.240;2023-07-20T12:40:24;21.80;99.90
23259;DHT22;11798;51.528;7.240;2023-07-20T12:42:50;21.70;99.90
23259;DHT22;11798;51.528;7.240;2023-07-20T12:45:16;21.90;99.90
23259;DHT22;11798;51.528;7.240;2023-07-20T12:47:42;22.10;99.90
23259;DHT22;11798;51.528;7.240;2023-07-20T12:50:09;22.10;99.90
23259;DHT22;11798;51.528;7.240;2023-07-20T12:52:39;22.10;99.90
23259;DHT22;11798;51.528;7.240;2023-07-20T12:55:07;22.30;99.90
23259;DHT22;11798;51.528;7.240;2023-07-20T12:57:37;22.50;99.90
23259;DHT22;11798;51.528;7.240;2023-07-20T13:00:07;22.50;99.90
23259;DHT22;11798;51.528;7.240;2023-07-20T13:02:36;22.50;99.90
23259;DHT22;11798;51.528;7.240;2023-07-20T13:05:02;22.70;99.90
23259;DHT22;11798;51.528;7.240;2023-07-20T13:07:35;22.70;99.90
23259;DHT22;11798;51.528;7.240;2023-07-20T13:10:04;22.50;99.90
23259;DHT22;11798;51.528;7.240;2023-07-20T13:12:31;22.40;99.90
23259;DHT22;11798;51.528;7.240;2023-07-20T13:14:57;22.30;99.90
23259;DHT22;11798;51.528;7.240;2023-07-20T13:17:26;22.40;99.90
23259;DHT22;11798;51.528;7.240;2023-07-20T13:19:52;22.40;99.90
23259;DHT22;11798;51.528;7.240;2023-07-20T13:22:17;22.50;99.90
23259;DHT22;11798;51.528;7.240;2023-07-20T13:24:45;22.50;99.90
23259;DHT22;11798;51.528;7.240;2023-07-20T13:27:12;22.50;99.90
23259;DHT22;11798;51.528;7.240;2023-07-20T13:29:38;22.50;99.90
23259;DHT22;11798;51.528;7.240;2023-07-20T13:32:03;22.50;99.90
23259;DHT22;11798;51.528;7.240;2023-07-20T13:34:31;22.70;99.90
23259;DHT22;11798;51.528;7.240;2023-07-20T13:36:57;22.70;99.90
23259;DHT22;11798;51.528;7.240;2023-07-20T13:39:23;22.80;99.90
23259;DHT22;11798;51.528;7.240;2023-07-20T13:41:50;23.00;99.90
23259;DHT22;11798;51.528;7.240;2023-07-20T13:44:15;23.00;99.90
23259;DHT22;11798;51.528;7.240;2023-07-20T13:46:41;23.10;99.90
23259;DHT22;11798;51.528;7.240;2023-07-20T13:49:06;23.30;99.90
23259;DHT22;11798;51.528;7.240;2023-07-20T13:51:32;23.30;99.90
23259;DHT22;11798;51.528;7.240;2023-07-20T13:53:58;23.10;99.90
23259;DHT22;11798;51.528;7.240;2023-07-20T13:56:24;23.10;99.90
23259;DHT22;11798;51.528;7.240;2023-07-20T13:58:50;23.20;99.90
23259;DHT22;11798;51.528;7.240;2023-07-20T14:01:16;23.00;99.90
23259;DHT22;11798;51.528;7.240;2023-07-20T14:03:43;23.00;99.90
23259;DHT22;11798;51.528;7.240;2023-07-20T14:06:09;22.90;99.90
23259;DHT22;11798;51.528;7.240;2023-07-20T14:08:34;22.90;99.90
23259;DHT22;11798;51.528;7.240;2023-07-20T14:11:00;22.80;99.90
23259;DHT22;11798;51.528;7.240;2023-07-20T14:13:26;22.90;99.90
23259;DHT22;11798;51.528;7.240;2023-07-20T14:15:51;23.10;99.90
23259;DHT22;11798;51.528;7.240;2023-07-20T14:18:17;23.00;99.90
23259;DHT22;11798;51.528;7.240;2023-07-20T14:20:43;23.20;99.90
23259;DHT22;11798;51.528;7.240;2023-07-20T14:23:09;23.50;99.90
23259;DHT22;11798;51.528;7.240;2023-07-20T14:25:35;23.70;99.90
23259;DHT22;11798;51.528;7.240;2023-07-20T14:28:01;23.70;99.90
23259;DHT22;11798;51.528;7.240;2023-07-20T14:30:27;23.40;99.90
23259;DHT22;11798;51.528;7.240;2023-07-20T14:32:52;23.40;99.90
23259;DHT22;11798;51.528;7.240;2023-07-20T14:35:18;23.60;99.90
23259;DHT22;11798;51.528;7.240;2023-07-20T14:37:44;23.70;99.90
23259;DHT22;11798;51.528;7.240;2023-07-20T14:40:12;23.80;99.90
23259;DHT22;11798;51.528;7.240;2023-07-20T14:42:38;23.50;99.90
23259;DHT22;11798;51.528;7.240;2023-07-20T14:45:04;23.60;99.90
23259;DHT22;11798;51.528;7.240;2023-07-20T14:47:31;23.60;99.90
23259;DHT22;11798;51.528;7.240;2023-07-20T14:50:01;23.70;99.90
23259;DHT22;11798;51.528;7.240;2023-07-20T14:52:28;24.10;99.90
23259;DHT22;11798;51.528;7.240;2023-07-20T14:54:54;24.10;99.90
23259;DHT22;11798;51.528;7.240;2023-07-20T14:57:20;23.80;99.90
23259;DHT22;11798;51.528;7.240;2023-07-20T14:59:48;23.60;99.90
23259;DHT22;11798;51.528;7.240;2023-07-20T15:02:14;23.20;99.90
23259;DHT22;11798;51.528;7.240;2023-07-20T15:04:49;23.20;99.90
23259;DHT22;11798;51.528;7.240;2023-07-20T15:07:17;23.20;99.90
23259;DHT22;11798;51.528;7.240;2023-07-20T15:09:44;23.20;99.90
23259;DHT22;11798;51.528;7.240;2023-07-20T15:12:09;23.30;99.90
23259;DHT22;11798;51.528;7.240;2023-07-20T15:14:35;23.50;99.90
23259;DHT22;11798;51.528;7.240;2023-07-20T15:17:01;23.70;99.90
23259;DHT22;11798;51.528;7.240;2023-07-20T15:19:28;23.70;99.90
23259;DHT22;11798;51.528;7.240;2023-07-20T15:21:53;24.00;99.90
23259;DHT22;11798;51.528;7.240;2023-07-20T15:24:19;23.90;99.90
23259;DHT22;11798;51.528;7.240;2023-07-20T15:26:44;24.00;99.90
23259;DHT22;11798;51.528;7.240;2023-07-20T15:29:10;24.20;99.90
23259;DHT22;11798;51.528;7.240;2023-07-20T15:31:36;24.20;99.90
23259;DHT22;11798;51.528;7.240;2023-07-20T15:34:01;23.90;99.90
23259;DHT22;11798;51.528;7.240;2023-07-20T15:36:27;23.60;99.90
23259;DHT22;11798;51.528;7.240;2023-07-20T15:38:53;23.80;99.90
23259;DHT22;11798;51.528;7.240;2023-07-20T15:41:18;23.60;99.90
23259;DHT22;11798;51.528;7.240;2023-07-20T15:43:44;23.70;99.90
23259;DHT22;11798;51.528;7.240;2023-07-20T15:49:02;23.80;99.90